sensor_id;sensor_type;location;lat;lon;timestamp;P1;durP1;ratioP1;P2;durP2;ratioP2
47113;SDS011;32867;51.556;6.832;2023-04-06T00:03:41;9.95;;;5.55;;
47113;SDS011;32867;51.556;6.832;2023-04-06T00:08:42;8.40;;;5.55;;
47113;SDS011;32867;51.556;6.832;2023-04-06T00:13:43;8.38;;;5.38;;
47113;SDS011;32867;51.556;6.832;2023-04-06T00:18:44;10.43;;;6.55;;
47113;SDS011;32867;51.556;6.832;2023-04-06T00:23:46;9.52;;;5.80;;
47113;SDS011;32867;51.556;6.832;2023-04-06T00:28:46;10.30;;;6.18;;
47113;SDS011;32867;51.556;6.832;2023-04-06T00:33:47;9.18;;;5.40;;
47113;SDS011;32867;51.556;6.832;2023-04-06T00:38:49;10.30;;;6.55;;
47113;SDS011;32867;51.556;6.832;2023-04-06T00:43:49;9.88;;;6.30;;
47113;SDS011;32867;51.556;6.832;2023-04-06T00:48:50;10.05;;;6.68;;
47113;SDS011;32867;51.556;6.832;2023-04-06T00:53:51;11.00;;;7.25;;
47113;SDS011;32867;51.556;6.832;2023-04-06T00:58:52;8.93;;;6.25;;
47113;SDS011;32867;51.556;6.832;2023-04-06T01:03:53;12.15;;;6.90;;
47113;SDS011;32867;51.556;6.832;2023-04-06T01:08:55;12.50;;;6.88;;
47113;SDS011;32867;51.556;6.832;2023-04-06T01:13:58;11.27;;;6.93;;
47113;SDS011;32867;51.556;6.832;2023-04-06T01:19:15;12.33;;;7.50;;
47113;SDS011;32867;51.556;6.832;2023-04-06T01:24:20;10.00;;;6.10;;
47113;SDS011;32867;51.556;6.832;2023-04-06T01:29:33;12.60;;;7.90;;
47113;SDS011;32867;51.556;6.832;2023-04-06T01:34:36;11.00;;;6.15;;
47113;SDS011;32867;51.556;6.832;2023-04-06T01:39:39;10.73;;;7.30;;
47113;SDS011;32867;51.556;6.832;2023-04-06T01:44:41;10.07;;;6.30;;
47113;SDS011;32867;51.556;6.832;2023-04-06T01:49:46;12.63;;;6.57;;
47113;SDS011;32867;51.556;6.832;2023-04-06T01:54:48;13.27;;;7.63;;
47113;SDS011;32867;51.556;6.832;2023-04-06T01:59:56;10.25;;;6.47;;
47113;SDS011;32867;51.556;6.832;2023-04-06T02:05:13;10.48;;;6.78;;
47113;SDS011;32867;51.556;6.832;2023-04-06T02:10:15;10.00;;;6.30;;
47113;SDS011;32867;51.556;6.832;2023-04-06T02:15:18;11.25;;;6.68;;
47113;SDS011;32867;51.556;6.832;2023-04-06T02:20:18;11.52;;;7.25;;
47113;SDS011;32867;51.556;6.832;2023-04-06T02:25:19;12.48;;;6.95;;
47113;SDS011;32867;51.556;6.832;2023-04-06T02:30:20;12.80;;;7.93;;
47113;SDS011;32867;51.556;6.832;2023-04-06T02:35:22;13.65;;;7.30;;
47113;SDS011;32867;51.556;6.832;2023-04-06T02:40:28;17.48;;;9.13;;
47113;SDS011;32867;51.556;6.832;2023-04-06T02:45:30;13.43;;;8.85;;
47113;SDS011;32867;51.556;6.832;2023-04-06T02:50:35;11.20;;;7.45;;
47113;SDS011;32867;51.556;6.832;2023-04-06T02:55:39;15.00;;;8.68;;
47113;SDS011;32867;51.556;6.832;2023-04-06T03:00:40;15.38;;;7.90;;
47113;SDS011;32867;51.556;6.832;2023-04-06T03:05:42;15.05;;;8.15;;
47113;SDS011;32867;51.556;6.832;2023-04-06T03:10:43;15.55;;;8.05;;
47113;SDS011;32867;51.556;6.832;2023-04-06T03:15:45;11.88;;;8.10;;
47113;SDS011;32867;51.556;6.832;2023-04-06T03:20:49;15.18;;;9.10;;
47113;SDS011;32867;51.556;6.832;2023-04-06T03:25:52;10.73;;;7.75;;
47113;SDS011;32867;51.556;6.832;2023-04-06T03:30:54;14.55;;;8.27;;
47113;SDS011;32867;51.556;6.832;2023-04-06T03:36:15;14.02;;;8.38;;
47113;SDS011;32867;51.556;6.832;2023-04-06T03:41:17;13.73;;;8.68;;
47113;SDS011;32867;51.556;6.832;2023-04-06T03:46:26;12.05;;;8.13;;
47113;SDS011;32867;51.556;6.832;2023-04-06T03:51:30;13.63;;;9.07;;
47113;SDS011;32867;51.556;6.832;2023-04-06T03:56:30;13.00;;;8.40;;
47113;SDS011;32867;51.556;6.832;2023-04-06T04:01:31;15.30;;;7.45;;
47113;SDS011;32867;51.556;6.832;2023-04-06T04:06:32;13.57;;;8.68;;
47113;SDS011;32867;51.556;6.832;2023-04-06T04:11:32;13.57;;;8.98;;
47113;SDS011;32867;51.556;6.832;2023-04-06T04:16:33;12.82;;;8.40;;
47113;SDS011;32867;51.556;6.832;2023-04-06T04:21:41;15.20;;;8.85;;
47113;SDS011;32867;51.556;6.832;2023-04-06T04:26:48;13.40;;;8.05;;
47113;SDS011;32867;51.556;6.832;2023-04-06T04:31:50;15.48;;;8.98;;
47113;SDS011;32867;51.556;6.832;2023-04-06T04:36:52;14.45;;;8.57;;
47113;SDS011;32867;51.556;6.832;2023-04-06T04:42:02;13.55;;;8.32;;
47113;SDS011;32867;51.556;6.832;2023-04-06T04:47:05;18.15;;;8.65;;
47113;SDS011;32867;51.556;6.832;2023-04-06T04:52:15;12.40;;;8.25;;
47113;SDS011;32867;51.556;6.832;2023-04-06T04:57:28;13.50;;;7.97;;
47113;SDS011;32867;51.556;6.832;2023-04-06T05:02:29;12.05;;;7.45;;
47113;SDS011;32867;51.556;6.832;2023-04-06T05:07:53;12.88;;;7.80;;
47113;SDS011;32867;51.556;6.832;2023-04-06T05:13:08;12.95;;;8.40;;
47113;SDS011;32867;51.556;6.832;2023-04-06T05:18:09;16.00;;;8.93;;
47113;SDS011;32867;51.556;6.832;2023-04-06T05:23:10;11.50;;;7.65;;
47113;SDS011;32867;51.556;6.832;2023-04-06T05:28:11;11.38;;;6.75;;
47113;SDS011;32867;51.556;6.832;2023-04-06T05:33:14;11.45;;;7.05;;
47113;SDS011;32867;51.556;6.832;2023-04-06T05:38:30;13.07;;;7.35;;
47113;SDS011;32867;51.556;6.832;2023-04-06T05:43:40;11.88;;;8.10;;
47113;SDS011;32867;51.556;6.832;2023-04-06T05:48:40;14.20;;;7.82;;
47113;SDS011;32867;51.556;6.832;2023-04-06T05:53:43;15.30;;;8.15;;
47113;SDS011;32867;51.556;6.832;2023-04-06T05:58:43;13.05;;;7.78;;
47113;SDS011;32867;51.556;6.832;2023-04-06T06:03:47;12.02;;;8.07;;
47113;SDS011;32867;51.556;6.832;2023-04-06T06:08:48;17.17;;;8.80;;
47113;SDS011;32867;51.556;6.832;2023-04-06T06:13:51;14.93;;;8.18;;
47113;SDS011;32867;51.556;6.832;2023-04-06T06:18:52;16.40;;;8.50;;
47113;SDS011;32867;51.556;6.832;2023-04-06T06:23:54;18.10;;;8.10;;
47113;SDS011;32867;51.556;6.832;2023-04-06T06:28:55;14.25;;;8.23;;
47113;SDS011;32867;51.556;6.832;2023-04-06T06:33:57;12.70;;;7.38;;
47113;SDS011;32867;51.556;6.832;2023-04-06T06:38:59;14.10;;;7.57;;
47113;SDS011;32867;51.556;6.832;2023-04-06T06:44:01;12.63;;;7.80;;
47113;SDS011;32867;51.556;6.832;2023-04-06T06:49:02;13.52;;;7.55;;
47113;SDS011;32867;51.556;6.832;2023-04-06T06:54:04;14.32;;;7.60;;
47113;SDS011;32867;51.556;6.832;2023-04-06T06:59:05;11.48;;;7.05;;
47113;SDS011;32867;51.556;6.832;2023-04-06T07:04:06;17.75;;;7.75;;
47113;SDS011;32867;51.556;6.832;2023-04-06T07:09:09;14.13;;;7.25;;
47113;SDS011;32867;51.556;6.832;2023-04-06T07:14:10;12.25;;;7.88;;
47113;SDS011;32867;51.556;6.832;2023-04-06T07:19:11;14.73;;;8.68;;
47113;SDS011;32867;51.556;6.832;2023-04-06T07:24:12;14.68;;;8.38;;
47113;SDS011;32867;51.556;6.832;2023-04-06T07:29:13;14.05;;;9.30;;
47113;SDS011;32867;51.556;6.832;2023-04-06T07:34:15;15.50;;;9.30;;
47113;SDS011;32867;51.556;6.832;2023-04-06T07:39:16;19.02;;;9.10;;
47113;SDS011;32867;51.556;6.832;2023-04-06T07:44:16;20.13;;;10.32;;
47113;SDS011;32867;51.556;6.832;2023-04-06T07:49:19;19.27;;;10.05;;
47113;SDS011;32867;51.556;6.832;2023-04-06T07:54:21;17.35;;;9.73;;
47113;SDS011;32867;51.556;6.832;2023-04-06T07:59:21;16.67;;;9.60;;
47113;SDS011;32867;51.556;6.832;2023-04-06T08:04:22;20.58;;;11.10;;
47113;SDS011;32867;51.556;6.832;2023-04-06T08:09:23;15.48;;;10.23;;
47113;SDS011;32867;51.556;6.832;2023-04-06T08:14:24;23.85;;;12.23;;
47113;SDS011;32867;51.556;6.832;2023-04-06T08:19:24;18.67;;;11.02;;
47113;SDS011;32867;51.556;6.832;2023-04-06T08:24:25;21.73;;;11.38;;
47113;SDS011;32867;51.556;6.832;2023-04-06T08:29:26;18.40;;;10.93;;
47113;SDS011;32867;51.556;6.832;2023-04-06T08:34:26;13.45;;;9.30;;
47113;SDS011;32867;51.556;6.832;2023-04-06T08:39:27;17.33;;;10.57;;
47113;SDS011;32867;51.556;6.832;2023-04-06T08:44:31;16.08;;;9.88;;
47113;SDS011;32867;51.556;6.832;2023-04-06T08:49:32;15.90;;;9.43;;
47113;SDS011;32867;51.556;6.832;2023-04-06T08:54:34;14.90;;;9.23;;
47113;SDS011;32867;51.556;6.832;2023-04-06T08:59:35;16.80;;;9.43;;
47113;SDS011;32867;51.556;6.832;2023-04-06T09:04:37;15.10;;;9.43;;
47113;SDS011;32867;51.556;6.832;2023-04-06T09:09:38;14.10;;;9.38;;
47113;SDS011;32867;51.556;6.832;2023-04-06T09:14:43;13.82;;;9.60;;
47113;SDS011;32867;51.556;6.832;2023-04-06T09:19:45;12.60;;;9.05;;
47113;SDS011;32867;51.556;6.832;2023-04-06T09:24:50;14.00;;;9.30;;
47113;SDS011;32867;51.556;6.832;2023-04-06T09:30:01;12.68;;;9.30;;
47113;SDS011;32867;51.556;6.832;2023-04-06T09:35:16;18.00;;;10.60;;
47113;SDS011;32867;51.556;6.832;2023-04-06T09:40:19;13.07;;;9.65;;
47113;SDS011;32867;51.556;6.832;2023-04-06T09:45:22;15.25;;;10.07;;
47113;SDS011;32867;51.556;6.832;2023-04-06T09:50:23;15.95;;;10.65;;
47113;SDS011;32867;51.556;6.832;2023-04-06T09:55:27;14.85;;;9.57;;
47113;SDS011;32867;51.556;6.832;2023-04-06T10:06:05;15.73;;;10.65;;
47113;SDS011;32867;51.556;6.832;2023-04-06T10:11:11;17.85;;;10.35;;
47113;SDS011;32867;51.556;6.832;2023-04-06T10:16:12;15.75;;;10.90;;
47113;SDS011;32867;51.556;6.832;2023-04-06T10:21:16;16.48;;;10.95;;
47113;SDS011;32867;51.556;6.832;2023-04-06T10:26:21;15.40;;;10.77;;
47113;SDS011;32867;51.556;6.832;2023-04-06T10:31:26;15.43;;;10.55;;
47113;SDS011;32867;51.556;6.832;2023-04-06T10:36:33;18.52;;;11.00;;
47113;SDS011;32867;51.556;6.832;2023-04-06T10:41:44;17.02;;;10.80;;
47113;SDS011;32867;51.556;6.832;2023-04-06T10:46:57;16.25;;;10.98;;
47113;SDS011;32867;51.556;6.832;2023-04-06T10:52:03;15.00;;;11.15;;
47113;SDS011;32867;51.556;6.832;2023-04-06T10:57:03;16.75;;;11.45;;
47113;SDS011;32867;51.556;6.832;2023-04-06T11:02:04;16.63;;;12.30;;
47113;SDS011;32867;51.556;6.832;2023-04-06T11:07:05;18.77;;;12.43;;
47113;SDS011;32867;51.556;6.832;2023-04-06T11:12:06;19.92;;;12.70;;
47113;SDS011;32867;51.556;6.832;2023-04-06T11:17:07;20.00;;;12.23;;
47113;SDS011;32867;51.556;6.832;2023-04-06T11:22:07;19.88;;;13.50;;
47113;SDS011;32867;51.556;6.832;2023-04-06T11:27:08;18.70;;;11.80;;
47113;SDS011;32867;51.556;6.832;2023-04-06T11:32:09;19.73;;;11.18;;
47113;SDS011;32867;51.556;6.832;2023-04-06T11:37:11;21.15;;;12.57;;
47113;SDS011;32867;51.556;6.832;2023-04-06T11:42:12;17.52;;;12.38;;
47113;SDS011;32867;51.556;6.832;2023-04-06T11:47:12;19.70;;;13.27;;
47113;SDS011;32867;51.556;6.832;2023-04-06T11:52:31;19.38;;;12.10;;
47113;SDS011;32867;51.556;6.832;2023-04-06T11:57:32;17.42;;;11.60;;
47113;SDS011;32867;51.556;6.832;2023-04-06T12:02:34;19.45;;;12.10;;
47113;SDS011;32867;51.556;6.832;2023-04-06T12:07:36;21.23;;;13.52;;
47113;SDS011;32867;51.556;6.832;2023-04-06T12:12:37;17.98;;;12.48;;
47113;SDS011;32867;51.556;6.832;2023-04-06T12:17:37;18.10;;;12.27;;
47113;SDS011;32867;51.556;6.832;2023-04-06T12:22:38;18.67;;;12.75;;
47113;SDS011;32867;51.556;6.832;2023-04-06T12:27:39;19.73;;;13.23;;
47113;SDS011;32867;51.556;6.832;2023-04-06T12:32:40;18.58;;;12.98;;
47113;SDS011;32867;51.556;6.832;2023-04-06T12:37:41;21.98;;;13.68;;
47113;SDS011;32867;51.556;6.832;2023-04-06T12:42:42;18.60;;;11.85;;
47113;SDS011;32867;51.556;6.832;2023-04-06T12:47:43;24.83;;;12.93;;
47113;SDS011;32867;51.556;6.832;2023-04-06T12:52:43;22.50;;;13.13;;
47113;SDS011;32867;51.556;6.832;2023-04-06T12:57:44;18.65;;;11.75;;
47113;SDS011;32867;51.556;6.832;2023-04-06T13:02:45;16.42;;;10.55;;
47113;SDS011;32867;51.556;6.832;2023-04-06T13:07:46;20.10;;;11.32;;
47113;SDS011;32867;51.556;6.832;2023-04-06T13:12:47;19.60;;;11.02;;
47113;SDS011;32867;51.556;6.832;2023-04-06T13:17:48;13.48;;;8.48;;
47113;SDS011;32867;51.556;6.832;2023-04-06T13:22:49;15.48;;;9.23;;
47113;SDS011;32867;51.556;6.832;2023-04-06T13:27:50;12.02;;;8.48;;
47113;SDS011;32867;51.556;6.832;2023-04-06T13:32:50;10.98;;;7.65;;
47113;SDS011;32867;51.556;6.832;2023-04-06T13:37:51;11.63;;;7.72;;
47113;SDS011;32867;51.556;6.832;2023-04-06T13:42:52;12.73;;;8.57;;
47113;SDS011;32867;51.556;6.832;2023-04-06T13:47:53;10.50;;;6.75;;
47113;SDS011;32867;51.556;6.832;2023-04-06T13:52:54;8.70;;;5.93;;
47113;SDS011;32867;51.556;6.832;2023-04-06T13:57:55;11.02;;;6.43;;
47113;SDS011;32867;51.556;6.832;2023-04-06T14:02:55;9.32;;;6.22;;
47113;SDS011;32867;51.556;6.832;2023-04-06T14:07:56;8.82;;;5.85;;
47113;SDS011;32867;51.556;6.832;2023-04-06T14:12:57;12.73;;;7.20;;
47113;SDS011;32867;51.556;6.832;2023-04-06T14:17:58;9.68;;;6.70;;
47113;SDS011;32867;51.556;6.832;2023-04-06T14:23:01;8.98;;;6.55;;
47113;SDS011;32867;51.556;6.832;2023-04-06T14:28:02;11.65;;;7.68;;
47113;SDS011;32867;51.556;6.832;2023-04-06T14:33:03;12.18;;;8.10;;
47113;SDS011;32867;51.556;6.832;2023-04-06T14:38:04;10.85;;;7.22;;
47113;SDS011;32867;51.556;6.832;2023-04-06T14:43:05;12.23;;;7.78;;
47113;SDS011;32867;51.556;6.832;2023-04-06T14:48:06;11.07;;;7.72;;
47113;SDS011;32867;51.556;6.832;2023-04-06T14:53:07;12.27;;;8.10;;
47113;SDS011;32867;51.556;6.832;2023-04-06T14:58:07;11.57;;;7.57;;
47113;SDS011;32867;51.556;6.832;2023-04-06T15:03:08;9.43;;;6.60;;
47113;SDS011;32867;51.556;6.832;2023-04-06T15:08:09;11.88;;;7.00;;
47113;SDS011;32867;51.556;6.832;2023-04-06T15:13:09;11.63;;;7.03;;
47113;SDS011;32867;51.556;6.832;2023-04-06T15:18:10;12.05;;;6.97;;
47113;SDS011;32867;51.556;6.832;2023-04-06T15:23:11;10.55;;;7.05;;
47113;SDS011;32867;51.556;6.832;2023-04-06T15:28:12;11.65;;;8.05;;
47113;SDS011;32867;51.556;6.832;2023-04-06T15:33:13;11.10;;;7.68;;
47113;SDS011;32867;51.556;6.832;2023-04-06T15:38:13;11.27;;;7.88;;
47113;SDS011;32867;51.556;6.832;2023-04-06T15:43:15;13.15;;;8.40;;
47113;SDS011;32867;51.556;6.832;2023-04-06T15:48:15;12.82;;;8.63;;
47113;SDS011;32867;51.556;6.832;2023-04-06T15:53:16;13.50;;;8.10;;
47113;SDS011;32867;51.556;6.832;2023-04-06T15:58:17;12.10;;;8.00;;
47113;SDS011;32867;51.556;6.832;2023-04-06T16:03:18;11.55;;;7.97;;
47113;SDS011;32867;51.556;6.832;2023-04-06T16:08:19;10.30;;;7.45;;
47113;SDS011;32867;51.556;6.832;2023-04-06T16:13:20;12.85;;;7.68;;
47113;SDS011;32867;51.556;6.832;2023-04-06T16:18:20;10.40;;;6.15;;
47113;SDS011;32867;51.556;6.832;2023-04-06T16:23:21;8.07;;;5.38;;
47113;SDS011;32867;51.556;6.832;2023-04-06T16:28:22;10.27;;;6.32;;
47113;SDS011;32867;51.556;6.832;2023-04-06T16:33:24;8.20;;;5.90;;
47113;SDS011;32867;51.556;6.832;2023-04-06T16:38:25;10.68;;;7.10;;
47113;SDS011;32867;51.556;6.832;2023-04-06T16:43:33;11.98;;;6.20;;
47113;SDS011;32867;51.556;6.832;2023-04-06T16:48:34;10.05;;;6.65;;
47113;SDS011;32867;51.556;6.832;2023-04-06T16:53:35;10.23;;;6.75;;
47113;SDS011;32867;51.556;6.832;2023-04-06T16:58:37;10.45;;;7.03;;
47113;SDS011;32867;51.556;6.832;2023-04-06T17:03:38;8.60;;;6.20;;
47113;SDS011;32867;51.556;6.832;2023-04-06T17:08:40;10.82;;;6.40;;
47113;SDS011;32867;51.556;6.832;2023-04-06T17:13:41;8.93;;;6.57;;
47113;SDS011;32867;51.556;6.832;2023-04-06T17:18:42;11.23;;;6.70;;
47113;SDS011;32867;51.556;6.832;2023-04-06T17:23:43;12.27;;;7.28;;
47113;SDS011;32867;51.556;6.832;2023-04-06T17:28:44;9.82;;;6.15;;
47113;SDS011;32867;51.556;6.832;2023-04-06T17:33:45;10.98;;;6.68;;
47113;SDS011;32867;51.556;6.832;2023-04-06T17:38:46;11.07;;;6.05;;
47113;SDS011;32867;51.556;6.832;2023-04-06T17:43:47;8.43;;;5.80;;
47113;SDS011;32867;51.556;6.832;2023-04-06T17:48:47;9.73;;;6.47;;
47113;SDS011;32867;51.556;6.832;2023-04-06T17:53:49;8.38;;;6.25;;
47113;SDS011;32867;51.556;6.832;2023-04-06T17:58:53;9.38;;;6.60;;
47113;SDS011;32867;51.556;6.832;2023-04-06T18:03:55;9.68;;;6.60;;
47113;SDS011;32867;51.556;6.832;2023-04-06T18:08:57;8.30;;;6.35;;
47113;SDS011;32867;51.556;6.832;2023-04-06T18:13:58;9.40;;;6.53;;
47113;SDS011;32867;51.556;6.832;2023-04-06T18:18:59;8.65;;;6.22;;
47113;SDS011;32867;51.556;6.832;2023-04-06T18:24:00;9.13;;;6.47;;
47113;SDS011;32867;51.556;6.832;2023-04-06T18:29:01;10.50;;;7.18;;
47113;SDS011;32867;51.556;6.832;2023-04-06T18:34:02;10.82;;;7.28;;
47113;SDS011;32867;51.556;6.832;2023-04-06T18:39:03;11.05;;;7.10;;
47113;SDS011;32867;51.556;6.832;2023-04-06T18:44:04;8.90;;;6.18;;
47113;SDS011;32867;51.556;6.832;2023-04-06T18:49:05;13.00;;;7.95;;
47113;SDS011;32867;51.556;6.832;2023-04-06T18:54:06;11.85;;;7.53;;
47113;SDS011;32867;51.556;6.832;2023-04-06T18:59:07;10.77;;;7.40;;
47113;SDS011;32867;51.556;6.832;2023-04-06T19:04:08;10.98;;;7.25;;
47113;SDS011;32867;51.556;6.832;2023-04-06T19:09:10;10.32;;;7.68;;
47113;SDS011;32867;51.556;6.832;2023-04-06T19:14:11;10.27;;;7.75;;
47113;SDS011;32867;51.556;6.832;2023-04-06T19:19:11;13.90;;;8.57;;
47113;SDS011;32867;51.556;6.832;2023-04-06T19:24:12;9.88;;;7.45;;
47113;SDS011;32867;51.556;6.832;2023-04-06T19:29:13;12.07;;;8.88;;
47113;SDS011;32867;51.556;6.832;2023-04-06T19:34:13;12.48;;;8.82;;
47113;SDS011;32867;51.556;6.832;2023-04-06T19:39:16;10.32;;;7.85;;
47113;SDS011;32867;51.556;6.832;2023-04-06T19:44:17;12.52;;;9.10;;
47113;SDS011;32867;51.556;6.832;2023-04-06T19:49:18;13.73;;;9.27;;
47113;SDS011;32867;51.556;6.832;2023-04-06T19:54:18;13.20;;;9.50;;
47113;SDS011;32867;51.556;6.832;2023-04-06T19:59:21;12.45;;;9.27;;
47113;SDS011;32867;51.556;6.832;2023-04-06T20:04:21;10.90;;;8.40;;
47113;SDS011;32867;51.556;6.832;2023-04-06T20:09:23;10.40;;;8.75;;
47113;SDS011;32867;51.556;6.832;2023-04-06T20:14:25;10.55;;;8.57;;
47113;SDS011;32867;51.556;6.832;2023-04-06T20:19:26;10.02;;;7.85;;
47113;SDS011;32867;51.556;6.832;2023-04-06T20:24:26;10.65;;;7.97;;
47113;SDS011;32867;51.556;6.832;2023-04-06T20:29:27;9.50;;;7.28;;
47113;SDS011;32867;51.556;6.832;2023-04-06T20:34:28;9.93;;;7.20;;
47113;SDS011;32867;51.556;6.832;2023-04-06T20:39:29;8.45;;;7.15;;
47113;SDS011;32867;51.556;6.832;2023-04-06T20:44:30;10.43;;;7.45;;
47113;SDS011;32867;51.556;6.832;2023-04-06T20:49:31;8.85;;;6.95;;
47113;SDS011;32867;51.556;6.832;2023-04-06T20:54:31;9.88;;;7.47;;
47113;SDS011;32867;51.556;6.832;2023-04-06T20:59:32;8.57;;;6.63;;
47113;SDS011;32867;51.556;6.832;2023-04-06T21:04:33;9.13;;;7.30;;
47113;SDS011;32867;51.556;6.832;2023-04-06T21:09:38;10.82;;;7.88;;
47113;SDS011;32867;51.556;6.832;2023-04-06T21:14:40;10.60;;;7.45;;
47113;SDS011;32867;51.556;6.832;2023-04-06T21:19:41;9.25;;;7.50;;
47113;SDS011;32867;51.556;6.832;2023-04-06T21:24:41;9.98;;;7.93;;
47113;SDS011;32867;51.556;6.832;2023-04-06T21:29:42;11.55;;;8.50;;
47113;SDS011;32867;51.556;6.832;2023-04-06T21:34:43;11.15;;;8.40;;
47113;SDS011;32867;51.556;6.832;2023-04-06T21:39:47;11.48;;;8.65;;
47113;SDS011;32867;51.556;6.832;2023-04-06T21:44:48;11.65;;;9.02;;
47113;SDS011;32867;51.556;6.832;2023-04-06T21:49:49;11.23;;;8.88;;
47113;SDS011;32867;51.556;6.832;2023-04-06T21:54:49;11.50;;;7.82;;
47113;SDS011;32867;51.556;6.832;2023-04-06T21:59:50;12.30;;;9.20;;
47113;SDS011;32867;51.556;6.832;2023-04-06T22:04:51;11.55;;;8.38;;
47113;SDS011;32867;51.556;6.832;2023-04-06T22:09:51;11.35;;;8.82;;
47113;SDS011;32867;51.556;6.832;2023-04-06T22:14:52;12.57;;;8.77;;
47113;SDS011;32867;51.556;6.832;2023-04-06T22:19:53;11.18;;;8.98;;
47113;SDS011;32867;51.556;6.832;2023-04-06T22:24:53;13.55;;;9.27;;
47113;SDS011;32867;51.556;6.832;2023-04-06T22:29:55;12.90;;;8.93;;
47113;SDS011;32867;51.556;6.832;2023-04-06T22:34:56;11.68;;;8.65;;
47113;SDS011;32867;51.556;6.832;2023-04-06T22:39:57;12.02;;;9.25;;
47113;SDS011;32867;51.556;6.832;2023-04-06T22:44:57;13.20;;;10.27;;
47113;SDS011;32867;51.556;6.832;2023-04-06T22:49:58;12.48;;;10.30;;
47113;SDS011;32867;51.556;6.832;2023-04-06T22:54:59;11.07;;;9.13;;
47113;SDS011;32867;51.556;6.832;2023-04-06T23:00:00;12.15;;;9.52;;
47113;SDS011;32867;51.556;6.832;2023-04-06T23:05:00;11.25;;;9.18;;
47113;SDS011;32867;51.556;6.832;2023-04-06T23:10:01;12.27;;;9.15;;
47113;SDS011;32867;51.556;6.832;2023-04-06T23:15:02;10.70;;;8.55;;
47113;SDS011;32867;51.556;6.832;2023-04-06T23:20:03;11.43;;;9.27;;
47113;SDS011;32867;51.556;6.832;2023-04-06T23:25:04;11.52;;;9.00;;
47113;SDS011;32867;51.556;6.832;2023-04-06T23:30:06;10.85;;;9.18;;
47113;SDS011;32867;51.556;6.832;2023-04-06T23:35:07;10.52;;;8.35;;
47113;SDS011;32867;51.556;6.832;2023-04-06T23:40:08;11.75;;;9.88;;
47113;SDS011;32867;51.556;6.832;2023-04-06T23:45:09;11.93;;;9.18;;
47113;SDS011;32867;51.556;6.832;2023-04-06T23:50:10;12.13;;;10.35;;
47113;SDS011;32867;51.556;6.832;2023-04-06T23:55:11;13.07;;;10.65;;
